createdAt,value
2022-11-20T00:01:12.176Z,12.52
2022-11-20T00:03:38.838Z,12.68
2022-11-20T00:06:07.158Z,12.48
2022-11-20T00:08:34.266Z,12.65
2022-11-20T00:11:04.014Z,13.15
2022-11-20T00:13:30.622Z,12.07
2022-11-20T00:16:01.058Z,13.98
2022-11-20T00:18:29.307Z,14.57
2022-11-20T00:21:01.873Z,14.05
2022-11-20T00:23:28.468Z,14.73
2022-11-20T00:25:55.041Z,14.02
2022-11-20T00:28:21.598Z,13.23
2022-11-20T00:30:48.127Z,14.05
2022-11-20T00:33:14.737Z,13.40
2022-11-20T00:35:42.708Z,13.70
2022-11-20T00:38:09.275Z,14.00
2022-11-20T00:40:35.844Z,14.50
2022-11-20T00:43:02.479Z,13.88
2022-11-20T00:45:29.041Z,13.10
2022-11-20T00:47:55.681Z,13.52
2022-11-20T00:50:22.185Z,12.77
2022-11-20T00:52:50.129Z,13.02
2022-11-20T00:55:16.683Z,12.70
2022-11-20T00:57:43.228Z,12.65
2022-11-20T01:00:10.484Z,12.55
2022-11-20T01:02:37.047Z,13.13
2022-11-20T01:05:03.969Z,13.60
2022-11-20T01:07:30.662Z,13.48
2022-11-20T01:09:59.612Z,13.10
2022-11-20T01:12:26.296Z,13.20
2022-11-20T01:14:52.864Z,13.02
2022-11-20T01:17:19.547Z,14.07
2022-11-20T01:19:48.975Z,13.80
2022-11-20T01:22:15.602Z,14.57
2022-11-20T01:24:42.250Z,13.82
2022-11-20T01:27:10.296Z,13.35
2022-11-20T01:29:36.801Z,13.50
2022-11-20T01:32:03.488Z,12.82
2022-11-20T01:34:30.162Z,12.75
2022-11-20T01:36:56.757Z,12.80
2022-11-20T01:39:25.436Z,13.55
2022-11-20T01:41:53.710Z,13.48
2022-11-20T01:44:43.612Z,13.75
2022-11-20T01:47:13.848Z,12.60
2022-11-20T01:49:45.921Z,14.57
2022-11-20T01:52:17.085Z,13.98
2022-11-20T01:54:48.091Z,13.60
2022-11-20T01:57:16.598Z,13.13
2022-11-20T01:59:48.172Z,13.43
2022-11-20T02:02:18.624Z,13.40
2022-11-20T02:04:45.352Z,13.73
2022-11-20T02:07:12.619Z,14.32
2022-11-20T02:09:39.251Z,13.82
2022-11-20T02:12:06.731Z,13.93
2022-11-20T02:14:33.312Z,13.52
2022-11-20T02:17:01.242Z,13.15
2022-11-20T02:19:30.126Z,13.52
2022-11-20T02:22:02.973Z,14.25
2022-11-20T02:24:31.153Z,13.65
2022-11-20T02:27:00.756Z,14.30
2022-11-20T02:29:31.808Z,13.85
2022-11-20T02:32:01.163Z,14.40
2022-11-20T02:34:27.725Z,13.63
2022-11-20T02:36:54.652Z,14.32
2022-11-20T02:39:23.743Z,14.32
2022-11-20T02:41:53.714Z,14.93
2022-11-20T02:44:20.723Z,14.15
2022-11-20T02:46:47.424Z,14.20
2022-11-20T02:49:13.976Z,13.85
2022-11-20T02:51:40.653Z,13.55
2022-11-20T02:54:07.278Z,14.00
2022-11-20T02:56:33.869Z,13.55
2022-11-20T02:59:01.848Z,13.60
2022-11-20T03:01:28.538Z,13.52
2022-11-20T03:03:55.179Z,13.45
2022-11-20T03:06:21.703Z,14.05
2022-11-20T03:08:48.561Z,13.52
2022-11-20T03:11:15.346Z,14.25
2022-11-20T03:13:41.942Z,13.60
2022-11-20T03:16:12.831Z,14.13
2022-11-20T03:18:39.969Z,13.45
2022-11-20T03:21:06.842Z,14.38
2022-11-20T03:23:34.095Z,13.50
2022-11-20T03:26:15.213Z,14.73
2022-11-20T03:28:42.222Z,14.00
2022-11-20T03:31:12.332Z,14.35
2022-11-20T03:33:39.747Z,14.02
2022-11-20T03:36:08.810Z,13.57
2022-11-20T03:38:35.836Z,13.70
2022-11-20T03:41:04.836Z,12.85
2022-11-20T03:43:32.288Z,13.93
2022-11-20T03:45:59.415Z,14.40
2022-11-20T03:48:30.064Z,12.70
2022-11-20T03:51:08.401Z,11.98
2022-11-20T03:53:35.068Z,13.35
2022-11-20T03:56:01.637Z,13.25
2022-11-20T03:58:28.265Z,12.82
2022-11-20T04:00:54.782Z,12.65
2022-11-20T04:03:21.323Z,12.52
2022-11-20T04:05:49.306Z,13.60
2022-11-20T04:08:15.929Z,12.85
2022-11-20T04:10:42.439Z,12.57
2022-11-20T04:13:09.005Z,13.40
2022-11-20T04:15:38.381Z,13.18
2022-11-20T04:18:05.433Z,12.70
2022-11-20T04:20:31.936Z,13.38
2022-11-20T04:22:59.888Z,13.30
2022-11-20T04:25:26.485Z,12.68
2022-11-20T04:27:53.095Z,12.02
2022-11-20T04:30:19.676Z,11.95
2022-11-20T04:32:46.305Z,12.48
2022-11-20T04:35:12.886Z,13.40
2022-11-20T04:37:39.443Z,13.35
2022-11-20T04:40:08.368Z,13.15
2022-11-20T04:42:36.022Z,13.85
2022-11-20T04:45:02.653Z,12.68
2022-11-20T04:47:29.262Z,12.82
2022-11-20T04:49:55.926Z,12.82
2022-11-20T04:52:22.632Z,13.27
2022-11-20T04:54:49.291Z,12.93
2022-11-20T04:57:17.200Z,12.40
2022-11-20T04:59:43.906Z,12.30
2022-11-20T05:02:11.491Z,13.25
2022-11-20T05:04:38.177Z,12.48
2022-11-20T05:07:04.812Z,12.73
2022-11-20T05:09:31.679Z,11.70
2022-11-20T05:11:58.164Z,12.05
2022-11-20T05:14:26.167Z,13.18
2022-11-20T05:16:52.936Z,12.85
2022-11-20T05:19:19.927Z,12.57
2022-11-20T05:21:46.754Z,12.68
2022-11-20T05:24:13.387Z,13.27
2022-11-20T05:26:40.046Z,13.05
2022-11-20T05:29:06.781Z,13.57
2022-11-20T05:31:34.712Z,12.40
2022-11-20T05:34:01.352Z,12.88
2022-11-20T05:36:27.882Z,13.00
2022-11-20T05:38:59.782Z,12.80
2022-11-20T05:41:28.085Z,12.57
2022-11-20T05:43:54.717Z,12.77
2022-11-20T05:46:27.835Z,13.65
2022-11-20T05:48:57.885Z,13.77
2022-11-20T05:51:25.552Z,13.32
2022-11-20T05:53:52.131Z,12.80
2022-11-20T05:56:20.976Z,12.93
2022-11-20T05:58:48.610Z,13.00
2022-11-20T06:01:17.312Z,13.48
2022-11-20T06:03:44.693Z,13.07
2022-11-20T06:06:12.984Z,13.40
2022-11-20T06:08:39.623Z,12.82
2022-11-20T06:11:07.333Z,13.07
2022-11-20T06:13:37.939Z,13.27
2022-11-20T06:16:07.730Z,13.07
2022-11-20T06:18:34.285Z,12.73
2022-11-20T06:21:02.441Z,13.52
2022-11-20T06:23:31.446Z,14.43
2022-11-20T06:25:59.335Z,14.07
2022-11-20T06:28:25.895Z,13.52
2022-11-20T06:30:52.418Z,13.02
2022-11-20T06:33:19.062Z,13.07
2022-11-20T06:35:45.631Z,13.43
2022-11-20T06:38:12.219Z,13.35
2022-11-20T06:40:42.504Z,13.85
2022-11-20T06:43:09.297Z,14.48
2022-11-20T06:45:35.925Z,14.52
2022-11-20T06:48:02.514Z,14.02
2022-11-20T06:50:29.093Z,14.13
2022-11-20T06:52:55.791Z,13.32
2022-11-20T06:55:22.368Z,12.88
2022-11-20T06:57:55.766Z,13.93
2022-11-20T07:00:22.727Z,13.68
2022-11-20T07:02:49.271Z,13.27
2022-11-20T07:05:15.956Z,13.95
2022-11-20T07:07:42.584Z,14.10
2022-11-20T07:10:10.492Z,13.95
2022-11-20T07:12:37.052Z,13.70
2022-11-20T07:15:06.281Z,14.00
2022-11-20T07:17:32.876Z,13.93
2022-11-20T07:19:59.456Z,13.45
2022-11-20T07:22:26.039Z,13.80
2022-11-20T07:24:52.625Z,13.65
2022-11-20T07:27:19.275Z,14.27
2022-11-20T07:29:45.798Z,13.18
2022-11-20T07:32:13.782Z,14.45
2022-11-20T07:34:40.311Z,14.25
2022-11-20T07:37:10.324Z,13.98
2022-11-20T07:39:37.353Z,13.70
2022-11-20T07:42:03.984Z,14.15
2022-11-20T07:44:30.704Z,13.90
2022-11-20T07:46:57.272Z,14.63
2022-11-20T07:49:25.193Z,13.88
2022-11-20T07:51:52.051Z,13.68
2022-11-20T07:54:18.781Z,15.82
2022-11-20T07:56:45.417Z,14.88
2022-11-20T07:59:12.077Z,15.43
2022-11-20T08:01:38.693Z,16.30
2022-11-20T08:04:05.319Z,15.30
2022-11-20T08:06:33.339Z,14.80
2022-11-20T08:09:00.197Z,14.90
2022-11-20T08:11:26.750Z,14.82
2022-11-20T08:13:53.461Z,14.85
2022-11-20T08:16:20.065Z,14.05
2022-11-20T08:18:46.708Z,15.02
2022-11-20T08:21:13.242Z,14.73
2022-11-20T08:23:41.168Z,15.23
2022-11-20T08:26:07.723Z,13.13
2022-11-20T08:28:34.427Z,14.95
2022-11-20T08:31:01.570Z,14.20
2022-11-20T08:33:28.530Z,14.65
2022-11-20T08:35:59.718Z,14.15
2022-11-20T08:38:26.393Z,14.40
2022-11-20T08:40:57.575Z,15.40
2022-11-20T08:43:24.186Z,15.63
2022-11-20T08:45:50.774Z,14.68
2022-11-20T08:48:17.352Z,14.05
2022-11-20T08:50:44.116Z,15.05
2022-11-20T08:53:10.700Z,14.48
2022-11-20T08:55:37.361Z,14.57
2022-11-20T08:58:06.142Z,14.90
2022-11-20T09:00:32.968Z,14.88
2022-11-20T09:02:59.760Z,15.18
2022-11-20T09:05:26.416Z,15.10
2022-11-20T09:07:52.951Z,14.73
2022-11-20T09:10:24.354Z,15.00
2022-11-20T09:12:52.388Z,17.13
2022-11-20T09:15:20.640Z,16.52
2022-11-20T09:17:51.848Z,16.35
2022-11-20T09:20:18.677Z,16.75
2022-11-20T09:22:45.344Z,16.23
2022-11-20T09:25:12.054Z,15.80
2022-11-20T09:27:38.803Z,16.45
2022-11-20T09:30:06.473Z,16.48
2022-11-20T09:32:34.382Z,16.90
2022-11-20T09:37:32.804Z,16.88
2022-11-20T09:39:59.403Z,18.60
2022-11-20T09:42:38.664Z,18.92
2022-11-20T09:45:20.851Z,19.75
2022-11-20T09:48:15.545Z,17.90
2022-11-20T09:50:47.888Z,18.95
2022-11-20T09:53:21.305Z,19.17
2022-11-20T09:55:49.551Z,19.83
2022-11-20T09:58:26.597Z,21.40
2022-11-20T10:00:54.452Z,20.70
2022-11-20T10:03:36.926Z,22.90
2022-11-20T10:06:06.070Z,24.10
2022-11-20T10:08:42.809Z,22.85
2022-11-20T10:11:17.542Z,23.25
2022-11-20T10:13:53.513Z,23.00
2022-11-20T10:16:36.673Z,24.58
2022-11-20T10:19:21.853Z,22.48
2022-11-20T10:21:59.260Z,22.60
2022-11-20T10:24:41.463Z,24.27
2022-11-20T10:27:27.687Z,25.17
2022-11-20T10:30:04.028Z,24.48
2022-11-20T10:32:37.276Z,26.08
2022-11-20T10:35:18.824Z,26.08
2022-11-20T10:37:49.558Z,25.80
2022-11-20T10:40:23.363Z,26.20
2022-11-20T10:42:54.152Z,25.67
2022-11-20T10:45:32.979Z,26.20
2022-11-20T10:48:11.952Z,26.65
2022-11-20T10:50:47.143Z,26.20
2022-11-20T10:53:25.081Z,26.58
2022-11-20T10:55:57.079Z,25.65
2022-11-20T10:58:37.286Z,26.67
2022-11-20T11:01:05.143Z,27.35
2022-11-20T11:03:32.372Z,27.85
2022-11-20T11:06:08.044Z,26.98
2022-11-20T11:08:38.421Z,27.10
2022-11-20T11:11:18.208Z,25.20
2022-11-20T11:13:44.862Z,26.52
2022-11-20T11:16:21.799Z,26.08
2022-11-20T11:18:48.532Z,25.27
2022-11-20T11:21:23.580Z,26.42
2022-11-20T11:24:13.444Z,23.63
2022-11-20T11:26:53.607Z,25.08
2022-11-20T11:29:20.908Z,25.63
2022-11-20T11:31:47.824Z,23.95
2022-11-20T11:34:16.745Z,23.88
2022-11-20T11:36:53.321Z,24.02
2022-11-20T11:39:21.891Z,23.95
2022-11-20T11:41:49.512Z,23.40
2022-11-20T11:44:20.006Z,23.38
2022-11-20T11:46:55.267Z,23.50
2022-11-20T11:49:22.246Z,23.60
2022-11-20T11:52:02.064Z,23.50
2022-11-20T11:54:34.199Z,23.45
2022-11-20T11:57:05.667Z,23.55
2022-11-20T11:59:45.106Z,22.48
2022-11-20T12:02:23.413Z,21.92
2022-11-20T12:04:55.724Z,22.52
2022-11-20T12:07:46.609Z,22.38
2022-11-20T12:10:21.276Z,22.85
2022-11-20T12:12:53.166Z,21.60
2022-11-20T12:15:29.374Z,22.07
2022-11-20T12:17:56.122Z,22.45
2022-11-20T12:20:26.839Z,22.65
2022-11-20T12:23:02.867Z,22.83
2022-11-20T12:25:33.346Z,23.77
2022-11-20T12:28:19.642Z,23.00
2022-11-20T12:30:59.576Z,24.33
2022-11-20T12:33:45.502Z,22.40
2022-11-20T12:36:24.690Z,23.08
2022-11-20T12:39:18.111Z,23.45
2022-11-20T12:41:55.480Z,21.80
2022-11-20T12:44:35.802Z,22.27
2022-11-20T12:47:16.785Z,22.42
2022-11-20T12:49:51.216Z,22.40
2022-11-20T12:52:28.452Z,21.63
2022-11-20T12:55:10.754Z,21.92
2022-11-20T12:57:45.035Z,24.95
2022-11-20T13:00:16.390Z,23.83
2022-11-20T13:03:16.665Z,22.30
2022-11-20T13:05:53.036Z,22.17
2022-11-20T13:08:23.633Z,22.75
2022-11-20T13:10:59.793Z,23.33
2022-11-20T13:13:36.095Z,22.50
2022-11-20T13:16:09.445Z,22.38
2022-11-20T13:18:39.920Z,21.95
2022-11-20T13:21:18.747Z,22.58
2022-11-20T13:23:45.349Z,21.40
2022-11-20T13:26:19.751Z,22.00
2022-11-20T13:28:47.649Z,21.48
2022-11-20T13:31:30.979Z,22.92
2022-11-20T13:33:58.927Z,22.42
2022-11-20T13:36:27.803Z,21.98
2022-11-20T13:38:56.105Z,22.92
2022-11-20T13:41:29.147Z,22.13
2022-11-20T13:44:03.119Z,24.00
2022-11-20T13:46:38.248Z,22.15
2022-11-20T13:49:10.315Z,22.37
2022-11-20T13:51:43.898Z,21.42
2022-11-20T13:54:44.612Z,22.98
2022-11-20T13:57:33.852Z,21.85
2022-11-20T14:00:12.273Z,22.13
2022-11-20T14:02:41.208Z,22.20
2022-11-20T14:05:20.492Z,22.63
2022-11-20T14:07:48.508Z,22.13
2022-11-20T14:10:23.290Z,22.08
2022-11-20T14:12:54.344Z,22.80
2022-11-20T14:15:30.229Z,22.48
2022-11-20T14:17:57.717Z,22.92
2022-11-20T14:20:27.444Z,21.55
2022-11-20T14:22:55.590Z,21.88
2022-11-20T14:25:24.183Z,22.05
2022-11-20T14:27:55.297Z,25.60
2022-11-20T14:30:24.588Z,22.10
2022-11-20T14:32:52.537Z,21.90
2022-11-20T14:35:24.154Z,23.27
2022-11-20T14:37:51.240Z,23.25
2022-11-20T14:40:27.646Z,23.30
2022-11-20T14:42:55.917Z,22.80
2022-11-20T14:45:23.615Z,23.67
2022-11-20T14:47:52.395Z,23.52
2022-11-20T14:50:22.724Z,23.23
2022-11-20T14:52:54.018Z,22.60
2022-11-20T14:55:28.490Z,21.88
2022-11-20T14:58:02.149Z,22.95
2022-11-20T15:00:30.482Z,21.98
2022-11-20T15:02:57.025Z,22.70
2022-11-20T15:05:25.694Z,23.02
2022-11-20T15:08:04.745Z,25.20
2022-11-20T15:10:31.511Z,23.83
2022-11-20T15:13:06.006Z,22.77
2022-11-20T15:15:40.129Z,22.83
2022-11-20T15:18:12.260Z,24.13
2022-11-20T15:20:38.896Z,24.30
2022-11-20T15:23:11.876Z,24.67
2022-11-20T15:25:39.249Z,24.40
2022-11-20T15:28:16.864Z,24.20
2022-11-20T15:30:43.500Z,24.30
2022-11-20T15:33:11.037Z,24.60
2022-11-20T15:35:37.856Z,23.88
2022-11-20T15:38:04.397Z,24.60
2022-11-20T15:40:30.953Z,23.15
2022-11-20T15:42:57.533Z,24.50
2022-11-20T15:45:25.795Z,24.60
2022-11-20T15:47:52.367Z,24.98
2022-11-20T15:50:19.004Z,25.33
2022-11-20T15:52:45.567Z,24.17
2022-11-20T15:55:12.272Z,24.25
2022-11-20T15:57:38.842Z,23.35
2022-11-20T16:00:06.942Z,24.15
2022-11-20T16:02:38.729Z,24.00
2022-11-20T16:05:11.858Z,23.48
2022-11-20T16:07:38.944Z,24.05
2022-11-20T16:10:06.159Z,23.05
2022-11-20T16:12:32.769Z,22.45
2022-11-20T16:14:59.399Z,22.77
2022-11-20T16:17:26.036Z,22.27
2022-11-20T16:19:53.944Z,22.67
2022-11-20T16:22:20.694Z,21.52
2022-11-20T16:24:47.265Z,22.98
2022-11-20T16:27:13.875Z,21.38
2022-11-20T16:29:40.479Z,20.25
2022-11-20T16:32:07.062Z,17.92
2022-11-20T16:34:33.616Z,18.20
2022-11-20T16:37:01.521Z,18.17
2022-11-20T16:39:28.066Z,18.05
2022-11-20T16:41:54.671Z,17.95
2022-11-20T16:44:21.857Z,16.52
2022-11-20T16:46:48.717Z,15.98
2022-11-20T16:49:15.393Z,14.95
2022-11-20T16:51:42.178Z,14.70
2022-11-20T16:54:10.433Z,14.07
2022-11-20T16:56:37.021Z,12.95
2022-11-20T16:59:04.211Z,13.98
2022-11-20T17:01:31.891Z,12.95
2022-11-20T17:03:59.923Z,13.02
2022-11-20T17:06:28.045Z,12.63
2022-11-20T17:08:56.018Z,14.88
2022-11-20T17:11:24.418Z,9.93
2022-11-20T17:13:51.442Z,8.52
2022-11-20T17:16:19.713Z,7.80
2022-11-20T17:18:47.083Z,7.18
2022-11-20T17:21:13.910Z,16.17
2022-11-20T17:23:42.118Z,7.18
2022-11-20T17:26:10.753Z,9.68
2022-11-20T17:28:39.216Z,7.28
2022-11-20T17:31:07.656Z,6.72
2022-11-20T17:33:35.381Z,7.40
2022-11-20T17:36:02.588Z,6.55
2022-11-20T17:38:29.191Z,6.85
2022-11-20T17:41:02.247Z,6.60
2022-11-20T17:43:34.367Z,7.28
2022-11-20T17:46:05.173Z,7.45
2022-11-20T17:48:31.807Z,7.03
2022-11-20T17:50:59.884Z,8.48
2022-11-20T17:53:26.488Z,7.97
2022-11-20T17:55:55.993Z,9.02
2022-11-20T17:58:22.735Z,8.95
2022-11-20T18:00:49.267Z,9.10
2022-11-20T18:03:17.201Z,10.23
2022-11-20T18:05:43.785Z,9.57
2022-11-20T18:08:10.448Z,9.82
2022-11-20T18:10:37.252Z,10.52
2022-11-20T18:13:03.742Z,10.05
2022-11-20T18:15:30.343Z,10.95
2022-11-20T18:17:56.876Z,11.13
2022-11-20T18:20:31.102Z,11.75
2022-11-20T18:22:58.801Z,10.27
2022-11-20T18:25:25.458Z,10.57
2022-11-20T18:27:52.159Z,10.25
2022-11-20T18:30:18.955Z,9.13
2022-11-20T18:32:45.555Z,9.07
2022-11-20T18:35:12.081Z,9.35
2022-11-20T18:37:40.039Z,8.57
2022-11-20T18:40:08.000Z,8.57
2022-11-20T18:42:36.948Z,8.00
2022-11-20T18:45:04.098Z,8.77
2022-11-20T18:47:32.281Z,21.95
2022-11-20T18:50:00.523Z,9.07
2022-11-20T18:52:28.233Z,8.85
2022-11-20T18:54:56.587Z,7.90
2022-11-20T18:57:25.523Z,7.53
2022-11-20T18:59:52.724Z,7.20
2022-11-20T19:02:20.844Z,7.78
2022-11-20T19:04:47.779Z,7.18
2022-11-20T19:07:15.383Z,8.32
2022-11-20T19:09:48.559Z,7.63
2022-11-20T19:12:19.138Z,7.72
2022-11-20T19:14:45.842Z,7.18
2022-11-20T19:17:12.487Z,7.68
2022-11-20T19:19:39.299Z,7.68
2022-11-20T19:22:05.883Z,8.13
2022-11-20T19:24:32.521Z,8.35
2022-11-20T19:26:59.082Z,6.80
2022-11-20T19:29:27.349Z,8.07
2022-11-20T19:31:54.465Z,7.80
2022-11-20T19:34:21.103Z,7.68
2022-11-20T19:36:48.125Z,7.65
2022-11-20T19:39:15.037Z,8.73
2022-11-20T19:41:42.127Z,8.00
2022-11-20T19:44:10.404Z,7.57
2022-11-20T19:46:39.084Z,7.07
2022-11-20T19:49:07.102Z,8.07
2022-11-20T19:51:35.272Z,6.57
2022-11-20T19:54:02.661Z,6.88
2022-11-20T19:56:31.385Z,7.47
2022-11-20T19:58:58.356Z,6.70
2022-11-20T20:01:27.374Z,6.40
2022-11-20T20:03:55.983Z,6.78
2022-11-20T20:06:24.679Z,5.95
2022-11-20T20:08:55.038Z,6.20
2022-11-20T20:11:25.887Z,5.97
2022-11-20T20:13:52.493Z,6.30
2022-11-20T20:16:21.834Z,6.18
2022-11-20T20:18:48.628Z,5.78
2022-11-20T20:21:17.474Z,6.30
2022-11-20T20:23:44.786Z,6.22
2022-11-20T20:26:11.900Z,6.57
2022-11-20T20:28:39.182Z,5.93
2022-11-20T20:31:07.091Z,5.63
2022-11-20T20:33:33.703Z,5.28
2022-11-20T20:36:00.256Z,5.60
2022-11-20T20:38:28.255Z,5.07
2022-11-20T20:40:54.973Z,5.43
2022-11-20T20:43:21.656Z,5.75
2022-11-20T20:45:49.576Z,5.78
2022-11-20T20:48:17.371Z,5.57
2022-11-20T20:50:53.643Z,6.28
2022-11-20T20:53:20.320Z,6.28
2022-11-20T20:55:55.189Z,6.85
2022-11-20T20:58:21.898Z,5.45
2022-11-20T21:00:48.578Z,6.32
2022-11-20T21:03:15.192Z,6.20
2022-11-20T21:05:41.787Z,6.78
2022-11-20T21:08:08.598Z,6.30
2022-11-20T21:10:35.113Z,6.47
2022-11-20T21:13:03.048Z,6.38
2022-11-20T21:15:29.608Z,5.75
2022-11-20T21:17:56.169Z,6.50
2022-11-20T21:20:22.727Z,5.97
2022-11-20T21:22:49.332Z,5.40
2022-11-20T21:25:15.875Z,6.43
2022-11-20T21:27:42.464Z,5.68
2022-11-20T21:30:11.605Z,5.70
2022-11-20T21:32:38.251Z,5.75
2022-11-20T21:35:05.578Z,6.53
2022-11-20T21:37:34.971Z,5.32
2022-11-20T21:40:04.421Z,5.72
2022-11-20T21:42:30.990Z,5.90
2022-11-20T21:44:57.601Z,5.80
2022-11-20T21:47:25.475Z,5.30
2022-11-20T21:49:52.011Z,5.32
2022-11-20T21:52:18.601Z,5.18
2022-11-20T21:54:45.173Z,4.85
2022-11-20T21:57:11.787Z,4.85
2022-11-20T21:59:38.445Z,4.60
2022-11-20T22:02:05.123Z,3.90
2022-11-20T22:04:33.220Z,4.70
2022-11-20T22:06:59.859Z,4.65
2022-11-20T22:09:26.856Z,4.75
2022-11-20T22:11:53.444Z,5.38
2022-11-20T22:14:20.289Z,5.65
2022-11-20T22:16:47.529Z,5.53
2022-11-20T22:19:15.894Z,5.10
2022-11-20T22:21:43.819Z,5.22
2022-11-20T22:24:13.343Z,5.32
2022-11-20T22:26:40.838Z,5.38
2022-11-20T22:29:12.280Z,5.95
2022-11-20T22:31:38.882Z,5.63
2022-11-20T22:34:05.501Z,6.68
2022-11-20T22:36:32.142Z,6.05
2022-11-20T22:39:02.484Z,5.95
2022-11-20T22:41:29.695Z,6.30
2022-11-20T22:43:58.004Z,5.85
2022-11-20T22:46:27.361Z,6.00
2022-11-20T22:48:55.630Z,5.90
2022-11-20T22:51:24.102Z,5.50
2022-11-20T22:53:51.136Z,4.80
2022-11-20T22:56:19.738Z,5.85
2022-11-20T22:58:48.196Z,6.00
2022-11-20T23:01:16.588Z,5.85
2022-11-20T23:03:45.232Z,5.72
2022-11-20T23:06:13.196Z,5.68
2022-11-20T23:08:40.792Z,5.60
2022-11-20T23:11:09.943Z,6.07
2022-11-20T23:13:38.232Z,5.35
2022-11-20T23:16:06.669Z,5.93
2022-11-20T23:18:34.016Z,5.82
2022-11-20T23:21:04.743Z,4.53
2022-11-20T23:23:31.405Z,5.13
2022-11-20T23:26:00.347Z,5.00
2022-11-20T23:28:26.925Z,5.43
2022-11-20T23:30:54.816Z,5.38
2022-11-20T23:33:21.360Z,4.93
2022-11-20T23:35:48.014Z,4.70
2022-11-20T23:38:14.940Z,4.57
2022-11-20T23:40:41.606Z,5.22
2022-11-20T23:43:08.245Z,5.15
2022-11-20T23:45:38.454Z,4.97
2022-11-20T23:48:06.876Z,5.03
2022-11-20T23:50:33.856Z,5.05
2022-11-20T23:53:00.569Z,5.13
2022-11-20T23:55:27.590Z,5.10
2022-11-20T23:57:54.244Z,5.00
